Time;durP1;ratioP1;P1;durP2;ratioP2;P2;SDS_P1;SDS_P2;PMS_P1;PMS_P2;Temp;Humidity;BMP_temperature;BMP_pressure;BME280_temperature;BME280_humidity;BME280_pressure;Samples;Min_cycle;Max_cycle;Signal;HPM_P1;HPM_P2
2023/04/18 00:00:00;;;;;;;11.5;7.9;;;;;;;9.9;92.2;98910;;;;
2023/04/18 00:11:00;;;;;;;11.5;7.9;;;;;;;9.8;92.1;98910;;;;
2023/04/18 00:21:00;;;;;;;9.6;7.5;;;;;;;9.8;92;98910;;;;
2023/04/18 00:32:00;;;;;;;;;;;;;;;9.9;91.8;98910;;;;
2023/04/18 00:43:00;;;;;;;10.5;7.7;;;;;;;9.9;91.6;98920;;;;
2023/04/18 00:53:00;;;;;;;10.5;7.7;;;;;;;9.9;91.4;98910;;;;
2023/04/18 01:04:00;;;;;;;10.5;7.7;;;;;;;9.8;91;98910;;;;
2023/04/18 01:14:00;;;;;;;10.8;7.3;;;;;;;9.7;91.3;98910;;;;
2023/04/18 01:24:00;;;;;;;10.8;7.3;;;;;;;9.8;91;98920;;;;
2023/04/18 01:35:00;;;;;;;10.8;7.3;;;;;;;9.6;90.2;98920;;;;
2023/04/18 01:45:00;;;;;;;11;8.1;;;;;;;9.6;90.2;98930;;;;
2023/04/18 01:55:01;;;;;;;11;8.1;;;;;;;9.6;90.5;98930;;;;
2023/04/18 02:05:00;;;;;;;11;8.1;;;;;;;9.5;90.8;98940;;;;
2023/04/18 02:15:00;;;;;;;9.2;7;;;;;;;9.6;91.3;98930;;;;
2023/04/18 02:25:00;;;;;;;9.2;7;;;;;;;9.5;91.2;98940;;;;
2023/04/18 02:36:00;;;;;;;9.2;7;;;;;;;9.5;91.2;98940;;;;
2023/04/18 02:46:00;;;;;;;9.4;6;;;;;;;9.5;91.3;98930;;;;
2023/04/18 02:57:00;;;;;;;9.4;6;;;;;;;9.6;91.4;98930;;;;
2023/04/18 03:07:00;;;;;;;9.2;6.2;;;;;;;9.6;91.5;98940;;;;
2023/04/18 03:18:00;;;;;;;9.2;6.2;;;;;;;9.6;91.4;98940;;;;
2023/04/18 03:28:00;;;;;;;9.2;6.2;;;;;;;9.6;91.7;98950;;;;
2023/04/18 03:39:00;;;;;;;12.3;9.4;;;;;;;9.5;92.1;98960;;;;
2023/04/18 03:50:00;;;;;;;12.3;9.4;;;;;;;9.6;92.1;98970;;;;
2023/04/18 04:00:00;;;;;;;12.3;9.4;;;;;;;9.6;92;98980;;;;
2023/04/18 04:11:00;;;;;;;15.6;11.8;;;;;;;9.7;91.9;98990;;;;
2023/04/18 04:21:00;;;;;;;15.6;11.8;;;;;;;9.6;91.5;99000;;;;
2023/04/18 04:32:00;;;;;;;15.6;11.8;;;;;;;9.6;91.3;99020;;;;
2023/04/18 04:43:00;;;;;;;13.7;9.2;;;;;;;9.6;90.8;99040;;;;
2023/04/18 04:53:00;;;;;;;13.7;9.2;;;;;;;9.5;90.6;99040;;;;
2023/04/18 05:04:00;;;;;;;13.7;9.2;;;;;;;9.6;90.5;99060;;;;
2023/04/18 05:14:00;;;;;;;15.6;10.9;;;;;;;9.6;90.2;99060;;;;
2023/04/18 05:24:00;;;;;;;15.6;10.9;;;;;;;9.5;90;99070;;;;
2023/04/18 05:35:00;;;;;;;15.6;10.9;;;;;;;9.6;90;99070;;;;
2023/04/18 05:45:00;;;;;;;14.9;11.7;;;;;;;9.7;89.6;99090;;;;
2023/04/18 05:56:00;;;;;;;14.9;11.7;;;;;;;9.7;89.3;99090;;;;
2023/04/18 06:06:00;;;;;;;16.1;11.3;;;;;;;9.9;89;99100;;;;
2023/04/18 06:17:00;;;;;;;16.1;11.3;;;;;;;9.9;88.4;99100;;;;
2023/04/18 06:28:00;;;;;;;16.1;11.3;;;;;;;10.5;87.4;99110;;;;
2023/04/18 06:38:00;;;;;;;19.5;11.9;;;;;;;10.6;86.4;99120;;;;
2023/04/18 06:49:00;;;;;;;19.5;11.9;;;;;;;10.5;85.3;99120;;;;
2023/04/18 06:59:00;;;;;;;19.5;11.9;;;;;;;10.9;84.2;99140;;;;
2023/04/18 07:10:00;;;;;;;16.7;10.4;;;;;;;11.3;82.7;99140;;;;
2023/04/18 07:20:00;;;;;;;16.7;10.4;;;;;;;11.5;81;99140;;;;
2023/04/18 07:31:01;;;;;;;16.7;10.4;;;;;;;11.9;81;99150;;;;
2023/04/18 07:42:01;;;;;;;18.1;10.9;;;;;;;12;79.3;99150;;;;
2023/04/18 07:53:00;;;;;;;18.1;10.9;;;;;;;12;77.9;99160;;;;
2023/04/18 08:03:00;;;;;;;18.1;10.9;;;;;;;11.9;77.3;99160;;;;
2023/04/18 08:14:00;;;;;;;14.4;10.5;;;;;;;12.5;76.3;99160;;;;
2023/04/18 08:24:00;;;;;;;14.4;10.5;;;;;;;12.6;74.7;99160;;;;
2023/04/18 08:35:00;;;;;;;14.4;10.5;;;;;;;12.9;73.9;99180;;;;
2023/04/18 08:45:00;;;;;;;10.4;8;;;;;;;12.6;72.3;99180;;;;
2023/04/18 08:56:01;;;;;;;10.4;8;;;;;;;12.9;70.7;99180;;;;
2023/04/18 09:07:00;;;;;;;11.9;7.9;;;;;;;13.5;68.5;99170;;;;
2023/04/18 09:17:00;;;;;;;11.9;7.9;;;;;;;13.2;68.6;99170;;;;
2023/04/18 09:27:02;;;;;;;11.9;7.9;;;;;;;14;66.9;99160;;;;
2023/04/18 09:38:00;;;;;;;12.3;8.1;;;;;;;14.3;64.7;99150;;;;
2023/04/18 09:49:00;;;;;;;12.3;8.1;;;;;;;14.8;64.4;99150;;;;
2023/04/18 09:59:00;;;;;;;12.3;8.1;;;;;;;14.9;61.4;99150;;;;
2023/04/18 10:09:00;;;;;;;9;5.6;;;;;;;14.6;61.1;99140;;;;
2023/04/18 10:20:00;;;;;;;9;5.6;;;;;;;15;61;99130;;;;
2023/04/18 10:30:00;;;;;;;9;5.6;;;;;;;14.8;60;99130;;;;
2023/04/18 10:40:04;;;;;;;9.2;6.1;;;;;;;15.2;58.1;99120;;;;
2023/04/18 10:50:00;;;;;;;9.2;6.1;;;;;;;15.4;58.6;99120;;;;
2023/04/18 11:00:00;;;;;;;9.2;6.1;;;;;;;15.8;57.2;99110;;;;
2023/04/18 11:10:00;;;;;;;7.8;5.2;;;;;;;15.7;56.6;99110;;;;
2023/04/18 11:20:00;;;;;;;7.8;5.2;;;;;;;15.8;56.5;99110;;;;
2023/04/18 11:30:00;;;;;;;7.8;5.2;;;;;;;15.8;55.8;99100;;;;
2023/04/18 11:41:00;;;;;;;8.1;4.4;;;;;;;16.1;55.3;99090;;;;
2023/04/18 11:51:00;;;;;;;8.1;4.4;;;;;;;16.1;53.9;99090;;;;
2023/04/18 12:02:00;;;;;;;8.1;4.4;;;;;;;16.1;54;99090;;;;
2023/04/18 12:12:01;;;;;;;6.5;3.6;;;;;;;16.4;53.2;99090;;;;
2023/04/18 12:23:02;;;;;;;6.5;3.6;;;;;;;16;52.9;99080;;;;
2023/04/18 12:33:00;;;;;;;6.5;3.6;;;;;;;16.6;50.8;99090;;;;
2023/04/18 12:43:01;;;;;;;6.7;3.9;;;;;;;16.5;47.8;99080;;;;
2023/04/18 12:54:00;;;;;;;6.7;3.9;;;;;;;16.8;47.6;99080;;;;
2023/04/18 13:05:00;;;;;;;6.7;3.9;;;;;;;16.7;49.8;99080;;;;
2023/04/18 13:15:00;;;;;;;6.7;3.9;;;;;;;16.5;49.5;99070;;;;
2023/04/18 13:26:00;;;;;;;6.6;3.4;;;;;;;16.3;47.3;99070;;;;
2023/04/18 13:37:00;;;;;;;6.6;3.4;;;;;;;16.6;43.1;99070;;;;
2023/04/18 13:47:00;;;;;;;6.2;3;;;;;;;16.5;42.5;99060;;;;
2023/04/18 13:58:00;;;;;;;6.2;3;;;;;;;16.6;46.3;99060;;;;
2023/04/18 14:09:00;;;;;;;6.2;3;;;;;;;16.5;46.1;99060;;;;
2023/04/18 14:19:00;;;;;;;5.9;3;;;;;;;16.5;45.9;99060;;;;
2023/04/18 14:29:01;;;;;;;5.9;3;;;;;;;16.7;47.3;99060;;;;
2023/04/18 14:39:01;;;;;;;5.9;3;;;;;;;16.5;47.6;99060;;;;
2023/04/18 14:49:00;;;;;;;;;;;;;;;16.7;48.1;99050;;;;
2023/04/18 15:00:00;;;;;;;6.6;3.7;;;;;;;17.1;47.5;99050;;;;
2023/04/18 15:11:01;;;;;;;6.6;3.7;;;;;;;17;47.7;99040;;;;
2023/04/18 15:22:00;;;;;;;6.6;3.7;;;;;;;18.6;45.3;99040;;;;
2023/04/18 15:33:01;;;;;;;6.1;3.4;;;;;;;18.1;44.6;99040;;;;
2023/04/18 15:44:00;;;;;;;6.1;3.4;;;;;;;17.6;45.1;99040;;;;
2023/04/18 15:54:00;;;;;;;6.1;3.4;;;;;;;16.6;46.7;99050;;;;
2023/04/18 16:04:01;;;;;;;6;3.6;;;;;;;15.6;48.9;99050;;;;
2023/04/18 16:15:00;;;;;;;6;3.6;;;;;;;15;52;99050;;;;
2023/04/18 16:25:00;;;;;;;6;3.6;;;;;;;14.7;55;99050;;;;
2023/04/18 16:35:00;;;;;;;13.5;9.5;;;;;;;14.5;55.2;99060;;;;
2023/04/18 16:46:00;;;;;;;13.5;9.5;;;;;;;14.2;55;99060;;;;
2023/04/18 16:57:01;;;;;;;10.4;6.9;;;;;;;14;56;99060;;;;
2023/04/18 17:08:02;;;;;;;10.4;6.9;;;;;;;13.8;56.5;99060;;;;
2023/04/18 17:19:00;;;;;;;10.4;6.9;;;;;;;13.6;57.6;99060;;;;
2023/04/18 17:30:00;;;;;;;11.4;8.7;;;;;;;13.5;58.6;99060;;;;
2023/04/18 17:40:05;;;;;;;11.4;8.7;;;;;;;13.3;59;99060;;;;
2023/04/18 17:51:00;;;;;;;11.4;8.7;;;;;;;13.1;59.1;99060;;;;
2023/04/18 18:01:00;;;;;;;19.5;16.2;;;;;;;12.9;60.2;99070;;;;
2023/04/18 18:11:00;;;;;;;19.5;16.2;;;;;;;12.7;61;99070;;;;
2023/04/18 18:22:00;;;;;;;19.5;16.2;;;;;;;12.6;62.2;99070;;;;
2023/04/18 18:32:00;;;;;;;18.2;14.6;;;;;;;12.5;63.1;99070;;;;
2023/04/18 18:42:01;;;;;;;18.2;14.6;;;;;;;12.5;66;99080;;;;
2023/04/18 18:52:02;;;;;;;18.2;14.6;;;;;;;12.6;69.4;99080;;;;
2023/04/18 19:02:00;;;;;;;17.8;13.7;;;;;;;12.7;69.2;99070;;;;
2023/04/18 19:13:00;;;;;;;17.8;13.7;;;;;;;12.7;70.9;99070;;;;
2023/04/18 19:23:00;;;;;;;17.8;13.7;;;;;;;12.7;71.2;99070;;;;
2023/04/18 19:33:01;;;;;;;14.8;11.7;;;;;;;12.7;71.7;99060;;;;
2023/04/18 19:44:01;;;;;;;14.8;11.7;;;;;;;12.6;71.8;99060;;;;
2023/04/18 19:55:00;;;;;;;14.8;11.7;;;;;;;12.5;72.3;99060;;;;
2023/04/18 20:05:00;;;;;;;16.6;11.5;;;;;;;12.4;72.3;99050;;;;
2023/04/18 20:15:00;;;;;;;16.6;11.5;;;;;;;12.3;71.7;99040;;;;
2023/04/18 20:26:01;;;;;;;18.2;12.9;;;;;;;12.3;71;99040;;;;
2023/04/18 20:36:01;;;;;;;18.2;12.9;;;;;;;12.2;69.8;99030;;;;
2023/04/18 20:47:01;;;;;;;18.2;12.9;;;;;;;12.2;69;99030;;;;
2023/04/18 20:57:01;;;;;;;11;8.4;;;;;;;12;69.8;99020;;;;
2023/04/18 21:08:01;;;;;;;11;8.4;;;;;;;11.9;69.9;99010;;;;
2023/04/18 21:18:01;;;;;;;11;8.4;;;;;;;11.7;67.9;99000;;;;
2023/04/18 21:28:01;;;;;;;16.5;11.2;;;;;;;11.5;71.9;99000;;;;
2023/04/18 21:39:01;;;;;;;16.5;11.2;;;;;;;11.5;73.3;98990;;;;
2023/04/18 21:49:00;;;;;;;16.5;11.2;;;;;;;11.3;75.6;98990;;;;
2023/04/18 21:59:01;;;;;;;12;7.5;;;;;;;11.3;76.9;98980;;;;
2023/04/18 22:09:01;;;;;;;12;7.5;;;;;;;11.2;79.1;98980;;;;
2023/04/18 22:19:02;;;;;;;12;7.5;;;;;;;11.3;78.8;98970;;;;
2023/04/18 22:30:00;;;;;;;14.8;10.6;;;;;;;11.3;79.7;98960;;;;
2023/04/18 22:41:00;;;;;;;14.8;10.6;;;;;;;11.4;80;98950;;;;
2023/04/18 22:51:01;;;;;;;14.8;10.6;;;;;;;11.4;80.1;98940;;;;
2023/04/18 23:02:00;;;;;;;19.5;14.5;;;;;;;11.4;80.1;98930;;;;
2023/04/18 23:12:01;;;;;;;19.5;14.5;;;;;;;11.4;80.1;98920;;;;
2023/04/18 23:22:01;;;;;;;19.5;14.5;;;;;;;11.3;81;98900;;;;
2023/04/18 23:32:00;;;;;;;17.1;13.6;;;;;;;11.3;80.8;98890;;;;
2023/04/18 23:42:01;;;;;;;17.1;13.6;;;;;;;11.3;81.3;98880;;;;
2023/04/18 23:53:01;;;;;;;17.1;13.6;;;;;;;11.1;83.5;98860;;;;
